Terminal Aerodrome Forecast
Issued by NWS Memphis, TN

Home | Current Version | Previous Version | Text Only | Print | Product List | Glossary On
Versions: 1 2 3 4 5 6 7 8 9 10 11 12 13 14 15 16 17 18 19 20 21 22 23
000
FTUS44 KMEG 282334
TAFMEM
TAF
KMEM 282334Z 2900/2924 02005KT P6SM OVC010
     FM290300 02004KT 5SM BR OVC005
     FM291400 03005KT P6SM OVC020
     FM291800 02006KT P6SM OVC250=

USA.gov is the U.S. government's official web portal to all federal, state and local government web resources and services.